UAE4CK OMDB-EGLL
Flight info
| Callsign | UAE4CK |
|---|---|
| Flight time | N/A |
| Altitude | 34000 |
| Route | ANVIX R401 GIDIS G783 RIGIL M628 PEKEM/N0461F280 Q332 MEDPO Y511 ITRUX/N0491F340 Y511 PMA DCT WEJ/N0487F360 L677 CVO L617 TANSA UL613 KOR DCT DIMIS DCT VAKSU DCT MONFA DCT SOTOV/N0473F380 DCT KPT DCT KUNOD DCT LIRSU DCT DENUT L608 LOGAN |
| Aircraft | A388/J-SADE2E3FGHIJ3J4J5M1RWXY/LB1D1 |
Departure
| Time | 2026-04-24 01:18 |
|---|---|
| Airport | Dubai International Airport (OMDB) |
Arrival
| Time | N/A |
|---|---|
| Airport | London Heathrow Airport (EGLL) |
| Time | Latitude | Longitude | Altitude | Speed | Heading |
|---|---|---|---|---|---|
| 2026-04-24 00:52 | 25.24565 | 55.36961 | 30 ft | 0 kts | 167° |
| 2026-04-24 01:06 | 25.24580 | 55.36957 | 32 ft | 2 kts | 166° |
| 2026-04-24 01:06 | 25.24596 | 55.36952 | 30 ft | 2 kts | 166° |
| 2026-04-24 01:07 | 25.24612 | 55.36948 | 24 ft | 2 kts | 165° |
| 2026-04-24 01:07 | 25.24628 | 55.36943 | 24 ft | 2 kts | 164° |
| 2026-04-24 01:07 | 25.24643 | 55.36938 | 24 ft | 2 kts | 163° |
| 2026-04-24 01:07 | 25.24648 | 55.36937 | 25 ft | 2 kts | 163° |
| 2026-04-24 01:08 | 25.24658 | 55.36933 | 26 ft | 2 kts | 162° |
| 2026-04-24 01:08 | 25.24674 | 55.36928 | 25 ft | 2 kts | 160° |
| 2026-04-24 01:08 | 25.24689 | 55.36921 | 23 ft | 2 kts | 158° |
| 2026-04-24 01:09 | 25.24703 | 55.36914 | 25 ft | 2 kts | 154° |
| 2026-04-24 01:09 | 25.24717 | 55.36904 | 25 ft | 2 kts | 146° |
| 2026-04-24 01:09 | 25.24728 | 55.36892 | 24 ft | 2 kts | 130° |
| 2026-04-24 01:09 | 25.24734 | 55.36882 | 24 ft | 0 kts | 121° |
| 2026-04-24 01:12 | 25.24733 | 55.36883 | 24 ft | 1 kts | 121° |
| 2026-04-24 01:12 | 25.24721 | 55.36906 | 25 ft | 6 kts | 122° |
| 2026-04-24 01:12 | 25.24694 | 55.36953 | 26 ft | 8 kts | 122° |
| 2026-04-24 01:12 | 25.24659 | 55.37016 | 26 ft | 11 kts | 122° |
| 2026-04-24 01:13 | 25.24616 | 55.37091 | 26 ft | 13 kts | 122° |
| 2026-04-24 01:13 | 25.24565 | 55.37181 | 30 ft | 14 kts | 122° |
| 2026-04-24 01:13 | 25.24512 | 55.37277 | 29 ft | 15 kts | 122° |
| 2026-04-24 01:13 | 25.24453 | 55.37382 | 29 ft | 16 kts | 122° |
| 2026-04-24 01:14 | 25.24391 | 55.37491 | 31 ft | 17 kts | 122° |
| 2026-04-24 01:14 | 25.24341 | 55.37580 | 30 ft | 7 kts | 122° |
| 2026-04-24 01:14 | 25.24309 | 55.37637 | 29 ft | 10 kts | 122° |
| 2026-04-24 01:14 | 25.24272 | 55.37705 | 30 ft | 10 kts | 114° |
| 2026-04-24 01:15 | 25.24271 | 55.37780 | 26 ft | 9 kts | 57° |
| 2026-04-24 01:15 | 25.24325 | 55.37824 | 27 ft | 11 kts | 32° |
| 2026-04-24 01:15 | 25.24389 | 55.37868 | 28 ft | 11 kts | 33° |
| 2026-04-24 01:15 | 25.24455 | 55.37916 | 29 ft | 11 kts | 34° |
| 2026-04-24 01:16 | 25.24524 | 55.37968 | 29 ft | 13 kts | 34° |
| 2026-04-24 01:16 | 25.24608 | 55.38030 | 28 ft | 15 kts | 33° |
| 2026-04-24 01:16 | 25.24692 | 55.38088 | 30 ft | 13 kts | 29° |
| 2026-04-24 01:16 | 25.24767 | 55.38091 | 31 ft | 7 kts | 308° |
| 2026-04-24 01:17 | 25.24799 | 55.38029 | 30 ft | 6 kts | 301° |
| 2026-04-24 01:17 | 25.24800 | 55.38028 | 30 ft | 0 kts | 301° |
| 2026-04-24 01:17 | 25.24941 | 55.37778 | 30 ft | 76 kts | 302° |
| 2026-04-24 01:18 | 25.25329 | 55.37083 | 30 ft | 136 kts | 302° |
| 2026-04-24 01:18 | 25.25901 | 55.36054 | 38 ft | 173 kts | 302° |
| 2026-04-24 01:18 | 25.26537 | 55.34881 | 346 ft | 180 kts | 302° |
| 2026-04-24 01:18 | 25.27186 | 55.33704 | 798 ft | 179 kts | 303° |
| 2026-04-24 01:19 | 25.27852 | 55.32519 | 1161 ft | 184 kts | 303° |
| 2026-04-24 01:19 | 25.28531 | 55.31309 | 1566 ft | 187 kts | 303° |
| 2026-04-24 01:19 | 25.29137 | 55.30010 | 1763 ft | 202 kts | 285° |
| 2026-04-24 01:19 | 25.29145 | 55.28401 | 1893 ft | 214 kts | 253° |
| 2026-04-24 01:20 | 25.28515 | 55.26907 | 1985 ft | 227 kts | 242° |
| 2026-04-24 01:20 | 25.27776 | 55.25282 | 2279 ft | 242 kts | 244° |
| 2026-04-24 01:20 | 25.27055 | 55.23606 | 2965 ft | 239 kts | 244° |
| 2026-04-24 01:20 | 25.26354 | 55.21954 | 3733 ft | 234 kts | 245° |
| 2026-04-24 01:21 | 25.25666 | 55.20326 | 4441 ft | 233 kts | 245° |
| 2026-04-24 01:21 | 25.24984 | 55.18719 | 5111 ft | 232 kts | 244° |
| 2026-04-24 01:21 | 25.23988 | 55.17318 | 5721 ft | 235 kts | 216° |
| 2026-04-24 01:21 | 25.22471 | 55.16669 | 6404 ft | 239 kts | 187° |
| 2026-04-24 01:22 | 25.20801 | 55.16770 | 6957 ft | 247 kts | 177° |
| 2026-04-24 01:22 | 25.19114 | 55.17220 | 7368 ft | 260 kts | 155° |
| 2026-04-24 01:22 | 25.17744 | 55.18513 | 7983 ft | 269 kts | 128° |
| 2026-04-24 01:22 | 25.16814 | 55.20363 | 8434 ft | 282 kts | 120° |
| 2026-04-24 01:23 | 25.15907 | 55.22345 | 8726 ft | 297 kts | 120° |
| 2026-04-24 01:23 | 25.14957 | 55.24408 | 9326 ft | 301 kts | 120° |
| 2026-04-24 01:23 | 25.13996 | 55.26455 | 9923 ft | 304 kts | 121° |
| 2026-04-24 01:23 | 25.13004 | 55.28537 | 10431 ft | 309 kts | 121° |
| 2026-04-24 01:24 | 25.11994 | 55.30641 | 11006 ft | 311 kts | 121° |
| 2026-04-24 01:24 | 25.10971 | 55.32764 | 11548 ft | 315 kts | 121° |
| 2026-04-24 01:24 | 25.10032 | 55.34934 | 12085 ft | 319 kts | 116° |
| 2026-04-24 01:24 | 25.09119 | 55.37177 | 12640 ft | 322 kts | 116° |
| 2026-04-24 01:25 | 25.08193 | 55.39432 | 13189 ft | 325 kts | 116° |
| 2026-04-24 01:25 | 25.07250 | 55.41718 | 13728 ft | 329 kts | 116° |
| 2026-04-24 01:25 | 25.06306 | 55.44069 | 13969 ft | 343 kts | 115° |
| 2026-04-24 01:25 | 25.05354 | 55.46554 | 14109 ft | 358 kts | 114° |
| 2026-04-24 01:26 | 25.04376 | 55.49131 | 14253 ft | 373 kts | 114° |
| 2026-04-24 01:26 | 25.03351 | 55.51821 | 14497 ft | 384 kts | 114° |
| 2026-04-24 01:26 | 25.02306 | 55.54541 | 14991 ft | 386 kts | 115° |
| 2026-04-24 01:26 | 25.01072 | 55.57118 | 15447 ft | 388 kts | 122° |
| 2026-04-24 01:27 | 24.99670 | 55.59676 | 15951 ft | 390 kts | 122° |
| 2026-04-24 01:27 | 24.98277 | 55.62245 | 16440 ft | 393 kts | 122° |
| 2026-04-24 01:27 | 24.96871 | 55.64849 | 16902 ft | 396 kts | 122° |
| 2026-04-24 01:27 | 24.95454 | 55.67475 | 17381 ft | 399 kts | 122° |
| 2026-04-24 01:28 | 24.94019 | 55.70084 | 17838 ft | 401 kts | 125° |
| 2026-04-24 01:28 | 24.92398 | 55.72547 | 18244 ft | 403 kts | 128° |
| 2026-04-24 01:28 | 24.90737 | 55.75037 | 18657 ft | 405 kts | 128° |
| 2026-04-24 01:28 | 24.89050 | 55.77582 | 19056 ft | 407 kts | 128° |
| 2026-04-24 01:29 | 24.87394 | 55.80081 | 19480 ft | 409 kts | 128° |
| 2026-04-24 01:29 | 24.85717 | 55.82611 | 19866 ft | 411 kts | 128° |
| 2026-04-24 01:29 | 24.84032 | 55.85153 | 20265 ft | 412 kts | 128° |
| 2026-04-24 01:29 | 24.82322 | 55.87705 | 20646 ft | 414 kts | 128° |
| 2026-04-24 01:30 | 24.80547 | 55.90200 | 20993 ft | 415 kts | 136° |
| 2026-04-24 01:30 | 24.78321 | 55.92205 | 21397 ft | 412 kts | 152° |
| 2026-04-24 01:30 | 24.75725 | 55.93483 | 21787 ft | 409 kts | 167° |
| 2026-04-24 01:30 | 24.72919 | 55.93967 | 22139 ft | 407 kts | 181° |
| 2026-04-24 01:31 | 24.70085 | 55.93875 | 22517 ft | 407 kts | 186° |
| 2026-04-24 01:31 | 24.67251 | 55.93683 | 22864 ft | 410 kts | 186° |
| 2026-04-24 01:31 | 24.64394 | 55.93516 | 23283 ft | 411 kts | 185° |
| 2026-04-24 01:31 | 24.61618 | 55.93080 | 23578 ft | 410 kts | 197° |
| 2026-04-24 01:32 | 24.58969 | 55.91933 | 23884 ft | 409 kts | 210° |
| 2026-04-24 01:32 | 24.56645 | 55.90146 | 24183 ft | 408 kts | 223° |
| 2026-04-24 01:32 | 24.54523 | 55.88066 | 24450 ft | 411 kts | 223° |
| 2026-04-24 01:32 | 24.52383 | 55.85993 | 24751 ft | 413 kts | 223° |
| 2026-04-24 01:33 | 24.50212 | 55.83903 | 25046 ft | 415 kts | 223° |
| 2026-04-24 01:33 | 24.48034 | 55.81809 | 25332 ft | 417 kts | 223° |
| 2026-04-24 01:33 | 24.45880 | 55.79740 | 25644 ft | 419 kts | 223° |
| 2026-04-24 01:33 | 24.43686 | 55.77633 | 25961 ft | 421 kts | 223° |
| 2026-04-24 01:34 | 24.41475 | 55.75510 | 26297 ft | 424 kts | 223° |
| 2026-04-24 01:34 | 24.39238 | 55.73361 | 26641 ft | 426 kts | 223° |
| 2026-04-24 01:34 | 24.37002 | 55.71214 | 26986 ft | 429 kts | 223° |
| 2026-04-24 01:34 | 24.34746 | 55.69049 | 27346 ft | 431 kts | 223° |
| 2026-04-24 01:35 | 24.32483 | 55.66878 | 27728 ft | 434 kts | 223° |
| 2026-04-24 01:35 | 24.30199 | 55.64689 | 28098 ft | 437 kts | 223° |
| 2026-04-24 01:35 | 24.27832 | 55.62588 | 28426 ft | 442 kts | 217° |
| 2026-04-24 01:35 | 24.26783 | 55.61831 | 28583 ft | 445 kts | 214° |
| 2026-04-24 01:36 | 24.24213 | 55.60352 | 28934 ft | 450 kts | 206° |
| 2026-04-24 01:36 | 24.21250 | 55.59190 | 29302 ft | 456 kts | 198° |
| 2026-04-24 01:36 | 24.18179 | 55.58305 | 29639 ft | 459 kts | 198° |
| 2026-04-24 01:36 | 24.15074 | 55.57386 | 30000 ft | 462 kts | 198° |
| 2026-04-24 01:37 | 24.11972 | 55.56456 | 30326 ft | 465 kts | 198° |
| 2026-04-24 01:37 | 24.08832 | 55.55513 | 30665 ft | 467 kts | 198° |
| 2026-04-24 01:37 | 24.05737 | 55.54585 | 30987 ft | 470 kts | 199° |
| 2026-04-24 01:37 | 24.02578 | 55.53638 | 31313 ft | 472 kts | 199° |
| 2026-04-24 01:38 | 23.99410 | 55.52692 | 31631 ft | 475 kts | 199° |
| 2026-04-24 01:38 | 23.96220 | 55.51742 | 31989 ft | 476 kts | 199° |
| 2026-04-24 01:38 | 23.93008 | 55.50789 | 32307 ft | 478 kts | 199° |
| 2026-04-24 01:38 | 23.89785 | 55.49832 | 32598 ft | 481 kts | 199° |
| 2026-04-24 01:39 | 23.86563 | 55.48877 | 32925 ft | 483 kts | 199° |
| 2026-04-24 01:39 | 23.83297 | 55.47908 | 33247 ft | 486 kts | 199° |
| 2026-04-24 01:39 | 23.80025 | 55.46937 | 33567 ft | 488 kts | 199° |
| 2026-04-24 01:39 | 23.76780 | 55.45973 | 33852 ft | 491 kts | 199° |
| 2026-04-24 01:40 | 23.73457 | 55.44985 | 33859 ft | 500 kts | 199° |
| 2026-04-24 01:40 | 23.66746 | 55.42995 | 33853 ft | 498 kts | 199° |
| 2026-04-24 01:41 | 23.60038 | 55.41010 | 33856 ft | 500 kts | 199° |
| 2026-04-24 01:41 | 23.53331 | 55.39026 | 33858 ft | 500 kts | 199° |
| 2026-04-24 01:42 | 23.46657 | 55.37053 | 33861 ft | 500 kts | 199° |
| 2026-04-24 01:42 | 23.39949 | 55.35070 | 33847 ft | 499 kts | 199° |
| 2026-04-24 01:43 | 23.33243 | 55.33089 | 33844 ft | 499 kts | 199° |
| 2026-04-24 01:43 | 23.26534 | 55.31111 | 33838 ft | 500 kts | 199° |
| 2026-04-24 01:44 | 23.19861 | 55.29144 | 33839 ft | 500 kts | 199° |
| 2026-04-24 01:44 | 23.13141 | 55.27164 | 33839 ft | 500 kts | 200° |
| 2026-04-24 01:44 | 23.09920 | 55.25842 | 33848 ft | 493 kts | 211° |
| 2026-04-24 01:45 | 23.07027 | 55.23892 | 33853 ft | 486 kts | 222° |
| 2026-04-24 01:45 | 23.04591 | 55.21410 | 33855 ft | 479 kts | 233° |
| 2026-04-24 01:45 | 23.02671 | 55.18482 | 33855 ft | 473 kts | 244° |
| 2026-04-24 01:46 | 23.00500 | 55.11852 | 33853 ft | 465 kts | 261° |
| 2026-04-24 01:46 | 22.99180 | 55.04974 | 33848 ft | 466 kts | 260° |
| 2026-04-24 01:47 | 22.97820 | 54.98103 | 33860 ft | 465 kts | 260° |
| 2026-04-24 01:47 | 22.96471 | 54.91298 | 33845 ft | 465 kts | 260° |
| 2026-04-24 01:48 | 22.95111 | 54.84441 | 33847 ft | 465 kts | 260° |
| 2026-04-24 01:48 | 22.93749 | 54.77592 | 33845 ft | 464 kts | 260° |
| 2026-04-24 01:49 | 22.92387 | 54.70756 | 33857 ft | 463 kts | 260° |
| 2026-04-24 01:49 | 22.91035 | 54.63984 | 33855 ft | 462 kts | 260° |
| 2026-04-24 01:50 | 22.89674 | 54.57184 | 33844 ft | 461 kts | 260° |
| 2026-04-24 01:50 | 22.88312 | 54.50397 | 33841 ft | 460 kts | 260° |
| 2026-04-24 01:51 | 22.86949 | 54.43620 | 33844 ft | 460 kts | 260° |
| 2026-04-24 01:51 | 22.85593 | 54.36894 | 33837 ft | 459 kts | 260° |
| 2026-04-24 01:52 | 22.84227 | 54.30133 | 33834 ft | 459 kts | 260° |
| 2026-04-24 01:52 | 22.82858 | 54.23367 | 33838 ft | 460 kts | 259° |
| 2026-04-24 01:53 | 22.81481 | 54.16582 | 33844 ft | 460 kts | 259° |
| 2026-04-24 01:53 | 22.80105 | 54.09816 | 33850 ft | 461 kts | 259° |
| 2026-04-24 01:54 | 22.78734 | 54.03092 | 33856 ft | 461 kts | 259° |
| 2026-04-24 01:54 | 22.77360 | 53.96305 | 33842 ft | 461 kts | 260° |
| 2026-04-24 01:55 | 22.76042 | 53.89498 | 33856 ft | 462 kts | 260° |
| 2026-04-24 01:55 | 22.74720 | 53.82688 | 33858 ft | 462 kts | 260° |
| 2026-04-24 01:56 | 22.73421 | 53.76052 | 33858 ft | 462 kts | 260° |
| 2026-04-24 01:56 | 22.72122 | 53.69430 | 33841 ft | 462 kts | 259° |
| 2026-04-24 01:57 | 22.70782 | 53.62622 | 33852 ft | 462 kts | 259° |
| 2026-04-24 01:57 | 22.69439 | 53.55814 | 33847 ft | 462 kts | 259° |
| 2026-04-24 01:58 | 22.68100 | 53.49046 | 33853 ft | 463 kts | 259° |
| 2026-04-24 01:58 | 22.66750 | 53.42227 | 33865 ft | 462 kts | 259° |
| 2026-04-24 01:59 | 22.65402 | 53.35428 | 33865 ft | 462 kts | 259° |
| 2026-04-24 01:59 | 22.64051 | 53.28639 | 33859 ft | 461 kts | 259° |
| 2026-04-24 02:00 | 22.62699 | 53.21858 | 33846 ft | 461 kts | 259° |
| 2026-04-24 02:00 | 22.61353 | 53.15126 | 33844 ft | 461 kts | 259° |
| 2026-04-24 02:01 | 22.59995 | 53.08347 | 33851 ft | 461 kts | 259° |
| 2026-04-24 02:01 | 22.58632 | 53.01555 | 33853 ft | 462 kts | 259° |
| 2026-04-24 02:02 | 22.57266 | 52.94763 | 33850 ft | 462 kts | 258° |
| 2026-04-24 02:02 | 22.55894 | 52.87966 | 33856 ft | 463 kts | 258° |
| 2026-04-24 02:03 | 22.53837 | 52.77795 | 33861 ft | 464 kts | 258° |
| 2026-04-24 02:03 | 22.52455 | 52.70980 | 33857 ft | 464 kts | 258° |
| 2026-04-24 02:04 | 22.51070 | 52.64168 | 33864 ft | 464 kts | 258° |
| 2026-04-24 02:04 | 22.49680 | 52.57349 | 33863 ft | 464 kts | 258° |
| 2026-04-24 02:05 | 22.48297 | 52.50577 | 33864 ft | 464 kts | 258° |
| 2026-04-24 02:05 | 22.46902 | 52.43761 | 33866 ft | 464 kts | 258° |
| 2026-04-24 02:06 | 22.45504 | 52.36946 | 33864 ft | 464 kts | 258° |
| 2026-04-24 02:06 | 22.44101 | 52.30126 | 33867 ft | 464 kts | 258° |
| 2026-04-24 02:07 | 22.42706 | 52.23358 | 33874 ft | 464 kts | 258° |
| 2026-04-24 02:07 | 22.41325 | 52.16554 | 33870 ft | 463 kts | 261° |
| 2026-04-24 02:08 | 22.40817 | 52.09634 | 33866 ft | 462 kts | 271° |
| 2026-04-24 02:08 | 22.41234 | 52.02710 | 33865 ft | 462 kts | 274° |
| 2026-04-24 02:09 | 22.41656 | 51.95784 | 33869 ft | 462 kts | 274° |
| 2026-04-24 02:09 | 22.42070 | 51.88894 | 33874 ft | 462 kts | 274° |
| 2026-04-24 02:10 | 22.42486 | 51.81962 | 33873 ft | 463 kts | 274° |
| 2026-04-24 02:10 | 22.42901 | 51.75019 | 33873 ft | 463 kts | 274° |
| 2026-04-24 02:11 | 22.43311 | 51.68109 | 33885 ft | 464 kts | 274° |
| 2026-04-24 02:11 | 22.43721 | 51.61158 | 33895 ft | 464 kts | 273° |
| 2026-04-24 02:12 | 22.44128 | 51.54190 | 33878 ft | 465 kts | 273° |
| 2026-04-24 02:12 | 22.44533 | 51.47210 | 33884 ft | 465 kts | 273° |
| 2026-04-24 02:13 | 22.44935 | 51.40231 | 33894 ft | 466 kts | 273° |
| 2026-04-24 02:13 | 22.45335 | 51.33240 | 33905 ft | 466 kts | 273° |
| 2026-04-24 02:14 | 22.45729 | 51.26288 | 33894 ft | 466 kts | 273° |
| 2026-04-24 02:14 | 22.46123 | 51.19292 | 33895 ft | 467 kts | 273° |
| 2026-04-24 02:15 | 22.46514 | 51.12293 | 33900 ft | 466 kts | 273° |
| 2026-04-24 02:15 | 22.46902 | 51.05292 | 33900 ft | 466 kts | 273° |
| 2026-04-24 02:16 | 22.47285 | 50.98337 | 33898 ft | 466 kts | 273° |
| 2026-04-24 02:16 | 22.47667 | 50.91341 | 33898 ft | 466 kts | 273° |
| 2026-04-24 02:17 | 22.48046 | 50.84339 | 33903 ft | 466 kts | 273° |
| 2026-04-24 02:17 | 22.48422 | 50.77357 | 33904 ft | 465 kts | 273° |
| 2026-04-24 02:18 | 22.48791 | 50.70421 | 33906 ft | 465 kts | 273° |
| 2026-04-24 02:18 | 22.49160 | 50.63445 | 33898 ft | 465 kts | 273° |
| 2026-04-24 02:19 | 22.49526 | 50.56468 | 33888 ft | 465 kts | 272° |
| 2026-04-24 02:19 | 22.49889 | 50.49490 | 33895 ft | 465 kts | 272° |
| 2026-04-24 02:20 | 22.50246 | 50.42552 | 33901 ft | 465 kts | 272° |
| 2026-04-24 02:20 | 22.50604 | 50.35562 | 33887 ft | 466 kts | 272° |
| 2026-04-24 02:21 | 22.50959 | 50.28561 | 33905 ft | 467 kts | 272° |
| 2026-04-24 02:21 | 22.51311 | 50.21557 | 33913 ft | 467 kts | 272° |
| 2026-04-24 02:22 | 22.51662 | 50.14532 | 33910 ft | 468 kts | 272° |
| 2026-04-24 02:22 | 22.52006 | 50.07551 | 33916 ft | 469 kts | 272° |
| 2026-04-24 02:23 | 22.52351 | 50.00504 | 33915 ft | 469 kts | 272° |
| 2026-04-24 02:23 | 22.52692 | 49.93481 | 33918 ft | 469 kts | 272° |
| 2026-04-24 02:24 | 22.53032 | 49.86421 | 33911 ft | 469 kts | 272° |
| 2026-04-24 02:24 | 22.53368 | 49.79357 | 33912 ft | 470 kts | 272° |
| 2026-04-24 02:25 | 22.53822 | 49.72360 | 33903 ft | 470 kts | 275° |
| 2026-04-24 02:25 | 22.54560 | 49.65337 | 33912 ft | 470 kts | 275° |
| 2026-04-24 02:26 | 22.55266 | 49.58301 | 33915 ft | 471 kts | 275° |
| 2026-04-24 02:26 | 22.55939 | 49.51249 | 33922 ft | 471 kts | 275° |
| 2026-04-24 02:27 | 22.56598 | 49.44251 | 33936 ft | 471 kts | 274° |
| 2026-04-24 02:27 | 22.57257 | 49.37212 | 33928 ft | 470 kts | 274° |
| 2026-04-24 02:28 | 22.57914 | 49.30170 | 33933 ft | 470 kts | 274° |
| 2026-04-24 02:28 | 22.58566 | 49.23151 | 33930 ft | 469 kts | 274° |
| 2026-04-24 02:29 | 22.59210 | 49.16187 | 33926 ft | 468 kts | 274° |
| 2026-04-24 02:29 | 22.59854 | 49.09183 | 33923 ft | 467 kts | 274° |
| 2026-04-24 02:30 | 22.60494 | 49.02195 | 33929 ft | 466 kts | 274° |
| 2026-04-24 02:30 | 22.61130 | 48.95207 | 33924 ft | 466 kts | 274° |
| 2026-04-24 02:31 | 22.61762 | 48.88229 | 33912 ft | 466 kts | 274° |
| 2026-04-24 02:31 | 22.62386 | 48.81309 | 33933 ft | 465 kts | 274° |
| 2026-04-24 02:32 | 22.63012 | 48.74344 | 33917 ft | 465 kts | 274° |
| 2026-04-24 02:32 | 22.63635 | 48.67371 | 33933 ft | 465 kts | 274° |
| 2026-04-24 02:33 | 22.64149 | 48.61586 | 33930 ft | 465 kts | 274° |
| 2026-04-24 02:33 | 22.64766 | 48.54625 | 33932 ft | 464 kts | 274° |
| 2026-04-24 02:34 | 22.65477 | 48.46544 | 33930 ft | 464 kts | 274° |
| 2026-04-24 02:34 | 22.66086 | 48.39595 | 33940 ft | 463 kts | 274° |
| 2026-04-24 02:35 | 22.66589 | 48.33829 | 33935 ft | 463 kts | 274° |
| 2026-04-24 02:35 | 22.67190 | 48.26893 | 33939 ft | 463 kts | 274° |
| 2026-04-24 02:36 | 22.67886 | 48.18832 | 33926 ft | 463 kts | 273° |
| 2026-04-24 02:36 | 22.68386 | 48.13013 | 33938 ft | 462 kts | 273° |
| 2026-04-24 02:37 | 22.68975 | 48.06123 | 33941 ft | 463 kts | 273° |
| 2026-04-24 02:37 | 22.69563 | 47.99190 | 33922 ft | 463 kts | 273° |
| 2026-04-24 02:38 | 22.70146 | 47.92243 | 33937 ft | 463 kts | 273° |
| 2026-04-24 02:38 | 22.70727 | 47.85288 | 33942 ft | 464 kts | 273° |
| 2026-04-24 02:39 | 22.71303 | 47.78366 | 33943 ft | 465 kts | 274° |
| 2026-04-24 02:39 | 22.71880 | 47.71400 | 33950 ft | 465 kts | 273° |
| 2026-04-24 02:40 | 22.72454 | 47.64427 | 33957 ft | 465 kts | 273° |
| 2026-04-24 02:40 | 22.73025 | 47.57452 | 33957 ft | 465 kts | 274° |
| 2026-04-24 02:41 | 22.73589 | 47.50528 | 33959 ft | 464 kts | 274° |
| 2026-04-24 02:41 | 22.74153 | 47.43571 | 33942 ft | 464 kts | 274° |
| 2026-04-24 02:42 | 22.74713 | 47.36611 | 33956 ft | 463 kts | 274° |
| 2026-04-24 02:42 | 22.75269 | 47.29672 | 33947 ft | 462 kts | 274° |
| 2026-04-24 02:43 | 22.75819 | 47.22778 | 33944 ft | 462 kts | 274° |
| 2026-04-24 02:43 | 22.76369 | 47.15846 | 33966 ft | 461 kts | 274° |
| 2026-04-24 02:44 | 22.76920 | 47.08928 | 33953 ft | 460 kts | 274° |
| 2026-04-24 02:44 | 22.77467 | 47.02025 | 33959 ft | 460 kts | 274° |
| 2026-04-24 02:45 | 22.78008 | 46.95159 | 33961 ft | 460 kts | 274° |
| 2026-04-24 02:45 | 22.78549 | 46.88247 | 33962 ft | 460 kts | 274° |
| 2026-04-24 02:46 | 22.79087 | 46.81340 | 33965 ft | 460 kts | 274° |
| 2026-04-24 02:46 | 22.79621 | 46.74432 | 33966 ft | 460 kts | 274° |
| 2026-04-24 02:47 | 22.80153 | 46.67530 | 33968 ft | 460 kts | 274° |
| 2026-04-24 02:47 | 22.80678 | 46.60669 | 33976 ft | 460 kts | 274° |
| 2026-04-24 02:48 | 22.81204 | 46.53759 | 33977 ft | 460 kts | 274° |
| 2026-04-24 02:48 | 22.81728 | 46.46845 | 33978 ft | 460 kts | 273° |
| 2026-04-24 02:49 | 22.82247 | 46.39936 | 33969 ft | 460 kts | 273° |
| 2026-04-24 02:49 | 22.82758 | 46.33076 | 33995 ft | 459 kts | 273° |
| 2026-04-24 02:50 | 22.83267 | 46.26182 | 33970 ft | 459 kts | 273° |
| 2026-04-24 02:50 | 22.83774 | 46.19295 | 33955 ft | 458 kts | 273° |
| 2026-04-24 02:51 | 22.84275 | 46.12429 | 33938 ft | 457 kts | 273° |
| 2026-04-24 02:51 | 22.84774 | 46.05557 | 33933 ft | 457 kts | 273° |
| 2026-04-24 02:52 | 22.85267 | 45.98747 | 33930 ft | 457 kts | 273° |
| 2026-04-24 02:52 | 22.85761 | 45.91866 | 33935 ft | 458 kts | 273° |
| 2026-04-24 02:53 | 22.86252 | 45.84979 | 33940 ft | 458 kts | 272° |
| 2026-04-24 02:53 | 22.86741 | 45.78087 | 33943 ft | 459 kts | 272° |
| 2026-04-24 02:54 | 22.87224 | 45.71227 | 33933 ft | 460 kts | 272° |
| 2026-04-24 02:54 | 22.87709 | 45.64313 | 33940 ft | 460 kts | 272° |
| 2026-04-24 02:55 | 22.88190 | 45.57393 | 33951 ft | 460 kts | 272° |
| 2026-04-24 02:55 | 22.88666 | 45.50521 | 33967 ft | 459 kts | 272° |
| 2026-04-24 02:56 | 22.89141 | 45.43613 | 33953 ft | 458 kts | 272° |
| 2026-04-24 02:56 | 22.89612 | 45.36722 | 33976 ft | 457 kts | 272° |
| 2026-04-24 02:57 | 22.90079 | 45.29844 | 33957 ft | 457 kts | 272° |
| 2026-04-24 02:57 | 22.90541 | 45.22988 | 33953 ft | 456 kts | 272° |
| 2026-04-24 02:58 | 22.90997 | 45.16182 | 33935 ft | 455 kts | 272° |
| 2026-04-24 02:58 | 22.91453 | 45.09335 | 33931 ft | 455 kts | 272° |
| 2026-04-24 02:59 | 22.91904 | 45.02504 | 33932 ft | 454 kts | 272° |
| 2026-04-24 02:59 | 22.92353 | 44.95665 | 33921 ft | 455 kts | 271° |
| 2026-04-24 03:00 | 22.92796 | 44.88855 | 33933 ft | 456 kts | 271° |
| 2026-04-24 03:00 | 22.93239 | 44.81994 | 33938 ft | 456 kts | 271° |
| 2026-04-24 03:01 | 22.93682 | 44.75113 | 33941 ft | 457 kts | 271° |
| 2026-04-24 03:01 | 22.94264 | 44.68232 | 33957 ft | 460 kts | 276° |
| 2026-04-24 03:02 | 22.95895 | 44.61540 | 33955 ft | 465 kts | 285° |
| 2026-04-24 03:02 | 22.97967 | 44.54901 | 33942 ft | 465 kts | 284° |
| 2026-04-24 03:03 | 23.00016 | 44.48237 | 33958 ft | 465 kts | 284° |
| 2026-04-24 03:03 | 23.02062 | 44.41581 | 33955 ft | 465 kts | 284° |
| 2026-04-24 03:04 | 23.04094 | 44.34971 | 33938 ft | 465 kts | 284° |
| 2026-04-24 03:04 | 23.06134 | 44.28325 | 33938 ft | 464 kts | 284° |
| 2026-04-24 03:05 | 23.08172 | 44.21675 | 33940 ft | 464 kts | 284° |
| 2026-04-24 03:05 | 23.10207 | 44.15023 | 33934 ft | 464 kts | 284° |
| 2026-04-24 03:06 | 23.12222 | 44.08427 | 33927 ft | 464 kts | 284° |
| 2026-04-24 03:06 | 23.14250 | 44.01772 | 33941 ft | 464 kts | 284° |
| 2026-04-24 03:07 | 23.16281 | 43.95102 | 33927 ft | 465 kts | 284° |
| 2026-04-24 03:07 | 23.18310 | 43.88422 | 33935 ft | 466 kts | 284° |
| 2026-04-24 03:08 | 23.21344 | 43.78421 | 33937 ft | 466 kts | 284° |
| 2026-04-24 03:09 | 23.23370 | 43.71723 | 33941 ft | 467 kts | 284° |
| 2026-04-24 03:09 | 23.25392 | 43.65030 | 33953 ft | 467 kts | 284° |
| 2026-04-24 03:10 | 23.27414 | 43.58330 | 33965 ft | 466 kts | 284° |
| 2026-04-24 03:10 | 23.29414 | 43.51688 | 33963 ft | 465 kts | 283° |
| 2026-04-24 03:11 | 23.31420 | 43.45012 | 33957 ft | 464 kts | 283° |
| 2026-04-24 03:11 | 23.33421 | 43.38342 | 33964 ft | 463 kts | 283° |
| 2026-04-24 03:12 | 23.35415 | 43.31688 | 33964 ft | 462 kts | 283° |
| 2026-04-24 03:12 | 23.37390 | 43.25083 | 33955 ft | 461 kts | 283° |
| 2026-04-24 03:13 | 23.39372 | 43.18444 | 33961 ft | 461 kts | 283° |
| 2026-04-24 03:13 | 23.41346 | 43.11819 | 33957 ft | 460 kts | 283° |
| 2026-04-24 03:14 | 23.43311 | 43.05196 | 33956 ft | 459 kts | 283° |
| 2026-04-24 03:14 | 23.45260 | 42.98616 | 33965 ft | 459 kts | 283° |
| 2026-04-24 03:15 | 23.47216 | 42.92003 | 33963 ft | 459 kts | 283° |
| 2026-04-24 03:15 | 23.49164 | 42.85405 | 33955 ft | 458 kts | 283° |
| 2026-04-24 03:16 | 23.51112 | 42.78797 | 33958 ft | 458 kts | 283° |
| 2026-04-24 03:16 | 23.53057 | 42.72189 | 33952 ft | 458 kts | 283° |
| 2026-04-24 03:17 | 23.54994 | 42.65615 | 33949 ft | 458 kts | 283° |
| 2026-04-24 03:17 | 23.56939 | 42.59001 | 33964 ft | 458 kts | 283° |
| 2026-04-24 03:18 | 23.58882 | 42.52382 | 33957 ft | 458 kts | 283° |
| 2026-04-24 03:18 | 23.60808 | 42.45807 | 33954 ft | 458 kts | 283° |
| 2026-04-24 03:19 | 23.62754 | 42.39154 | 33974 ft | 457 kts | 283° |
| 2026-04-24 03:19 | 23.64665 | 42.32607 | 33961 ft | 456 kts | 283° |
| 2026-04-24 03:20 | 23.66586 | 42.26017 | 33951 ft | 455 kts | 283° |
| 2026-04-24 03:20 | 23.68496 | 42.19427 | 33961 ft | 455 kts | 283° |
| 2026-04-24 03:21 | 23.70401 | 42.12844 | 33946 ft | 455 kts | 282° |
| 2026-04-24 03:21 | 23.72284 | 42.06324 | 33945 ft | 454 kts | 282° |
| 2026-04-24 03:22 | 23.74179 | 41.99755 | 33941 ft | 454 kts | 282° |
| 2026-04-24 03:22 | 23.76076 | 41.93189 | 33935 ft | 454 kts | 282° |
| 2026-04-24 03:23 | 23.77973 | 41.86622 | 33930 ft | 454 kts | 282° |
| 2026-04-24 03:23 | 23.79857 | 41.80088 | 33935 ft | 454 kts | 282° |
| 2026-04-24 03:24 | 23.81750 | 41.73508 | 33937 ft | 455 kts | 282° |
| 2026-04-24 03:24 | 23.83643 | 41.66911 | 33944 ft | 456 kts | 282° |
| 2026-04-24 03:25 | 23.85523 | 41.60345 | 33949 ft | 456 kts | 282° |
| 2026-04-24 03:25 | 23.87413 | 41.53731 | 33954 ft | 456 kts | 282° |
| 2026-04-24 03:26 | 23.89296 | 41.47103 | 33955 ft | 456 kts | 282° |
| 2026-04-24 03:26 | 23.91172 | 41.40484 | 33951 ft | 456 kts | 282° |
| 2026-04-24 03:27 | 23.93031 | 41.33918 | 33957 ft | 456 kts | 282° |
| 2026-04-24 03:27 | 23.94907 | 41.27303 | 33948 ft | 455 kts | 282° |
| 2026-04-24 03:28 | 23.96780 | 41.20693 | 33942 ft | 455 kts | 282° |
| 2026-04-24 03:28 | 23.98648 | 41.14083 | 33943 ft | 455 kts | 282° |
| 2026-04-24 03:29 | 24.00512 | 41.07477 | 33939 ft | 454 kts | 282° |
| 2026-04-24 03:29 | 24.02358 | 41.00918 | 33942 ft | 454 kts | 282° |
| 2026-04-24 03:30 | 24.04211 | 40.94324 | 33930 ft | 454 kts | 282° |
| 2026-04-24 03:30 | 24.06064 | 40.87717 | 33947 ft | 453 kts | 282° |
| 2026-04-24 03:31 | 24.07909 | 40.81129 | 33938 ft | 452 kts | 282° |
| 2026-04-24 03:31 | 24.09748 | 40.74547 | 33931 ft | 452 kts | 282° |
| 2026-04-24 03:32 | 24.11569 | 40.68019 | 33927 ft | 452 kts | 282° |
| 2026-04-24 03:32 | 24.13401 | 40.61443 | 33925 ft | 451 kts | 282° |
| 2026-04-24 03:33 | 24.15226 | 40.54877 | 33915 ft | 451 kts | 281° |
| 2026-04-24 03:33 | 24.17569 | 40.48520 | 33911 ft | 459 kts | 291° |
| 2026-04-24 03:34 | 24.20567 | 40.42340 | 33922 ft | 458 kts | 291° |
| 2026-04-24 03:34 | 24.23521 | 40.36170 | 33916 ft | 458 kts | 291° |
| 2026-04-24 03:35 | 24.26478 | 40.29988 | 33912 ft | 458 kts | 291° |
| 2026-04-24 03:35 | 24.29434 | 40.23805 | 33918 ft | 458 kts | 291° |
| 2026-04-24 03:36 | 24.32371 | 40.17657 | 33912 ft | 458 kts | 291° |
| 2026-04-24 03:36 | 24.35324 | 40.11465 | 33915 ft | 458 kts | 291° |
| 2026-04-24 03:37 | 24.38274 | 40.05273 | 33921 ft | 458 kts | 291° |
| 2026-04-24 03:37 | 24.41224 | 39.99072 | 33928 ft | 459 kts | 290° |
| 2026-04-24 03:38 | 24.44174 | 39.92862 | 33927 ft | 459 kts | 290° |
| 2026-04-24 03:38 | 24.47098 | 39.86701 | 33936 ft | 459 kts | 290° |
| 2026-04-24 03:39 | 24.50045 | 39.80481 | 33952 ft | 459 kts | 290° |
| 2026-04-24 03:39 | 24.52992 | 39.74255 | 33948 ft | 459 kts | 290° |
| 2026-04-24 03:40 | 24.55963 | 39.68045 | 33945 ft | 460 kts | 292° |
| 2026-04-24 03:40 | 24.59162 | 39.62004 | 33941 ft | 461 kts | 293° |
| 2026-04-24 03:41 | 24.62396 | 39.55923 | 33940 ft | 459 kts | 293° |
| 2026-04-24 03:41 | 24.65581 | 39.49847 | 33738 ft | 462 kts | 295° |
| 2026-04-24 03:42 | 24.66101 | 39.48856 | 33681 ft | 460 kts | 294° |